Time;durP1;ratioP1;P1;durP2;ratioP2;P2;SDS_P1;SDS_P2;PMS_P1;PMS_P2;Temp;Humidity;BMP_temperature;BMP_pressure;BME280_temperature;BME280_humidity;BME280_pressure;Samples;Min_cycle;Max_cycle;Signal;HPM_P1;HPM_P2
2023/07/12 00:01:36;;;;;;;;;;;23.30;99.90;;;23.53;64.60;98382.78;4964046;28;124366;-88
2023/07/12 00:04:05;;;;;;;;;;;23.20;99.90;;;23.54;64.48;98379.56;4968600;28;122712;-88
2023/07/12 00:06:36;;;;;;;;;;;23.30;99.90;;;23.57;64.37;98384.38;4971327;28;115490;-88
2023/07/12 00:09:12;;;;;;;;;;;23.30;99.90;;;23.59;64.15;98365.03;4968566;28;114719;-89
2023/07/12 00:11:41;;;;;;;;;;;23.30;99.90;;;23.62;64.05;98382.34;4978540;28;124148;-89
2023/07/12 00:14:08;;;;;;;;;;;23.30;99.90;;;23.63;63.91;98393.22;4980329;28;123777;-88
2023/07/12 00:16:43;;;;;;;;;;;23.30;99.90;;;23.63;63.76;98362.19;4985708;28;114502;-88
2023/07/12 00:19:18;;;;;;;;;;;23.30;99.90;;;23.64;63.77;98354.53;4969742;28;114254;-89
2023/07/12 00:21:44;;;;;;;;;;;23.30;99.90;;;23.67;63.69;98360.16;4971903;28;123831;-83
2023/07/12 00:24:13;;;;;;;;;;;23.30;99.90;;;23.71;63.22;98355.31;4986532;28;124696;-85
2023/07/12 00:26:41;;;;;;;;;;;23.40;99.90;;;23.75;63.10;98344.84;4985380;28;113564;-85
2023/07/12 00:29:08;;;;;;;;;;;23.40;99.70;;;23.77;62.76;98341.59;4975420;28;114058;-86
2023/07/12 00:31:37;;;;;;;;;;;23.40;99.60;;;23.78;62.73;98355.28;4978255;28;124199;-85
2023/07/12 00:34:09;;;;;;;;;;;23.40;99.50;;;23.80;62.69;98330.28;4985944;28;123530;-85
2023/07/12 00:36:35;;;;;;;;;;;23.40;99.40;;;23.85;62.55;98319.78;4987443;28;114261;-85
2023/07/12 00:39:05;;;;;;;;;;;23.50;99.50;;;23.92;62.64;98316.91;4988822;28;113656;-85
2023/07/12 00:41:57;;;;;;;;;;;23.50;99.50;;;23.96;62.32;98314.84;4988118;28;124124;-85
2023/07/12 00:44:32;;;;;;;;;;;23.60;99.40;;;24.04;62.34;98327.69;4988266;28;124566;-85
2023/07/12 00:46:58;;;;;;;;;;;23.60;99.40;;;24.07;62.43;98321.22;4979719;28;114285;-85
2023/07/12 00:49:25;;;;;;;;;;;23.60;99.40;;;24.09;62.21;98326.44;4988276;28;113716;-84
2023/07/12 00:52:11;;;;;;;;;;;23.70;99.30;;;24.09;62.15;98321.59;4978070;28;124087;-85
2023/07/12 00:54:54;;;;;;;;;;;23.70;99.30;;;24.11;62.08;98326.84;4986359;28;124609;-85
2023/07/12 00:57:21;;;;;;;;;;;23.70;99.30;;;24.14;61.93;98326.81;4986878;28;115213;-85
2023/07/12 00:59:49;;;;;;;;;;;23.70;99.10;;;24.14;62.09;98332.47;4980144;28;113626;-85
2023/07/12 01:02:22;;;;;;;;;;;23.70;99.00;;;24.17;61.88;98322.34;4983080;28;124207;-84
2023/07/12 01:04:50;;;;;;;;;;;23.80;99.00;;;24.17;61.48;98309.03;4987367;28;124471;-85
2023/07/12 01:07:22;;;;;;;;;;;23.80;98.80;;;24.19;61.32;98312.25;4987237;28;114120;-85
2023/07/12 01:09:48;;;;;;;;;;;23.80;98.70;;;24.22;61.33;98310.63;4986989;28;114394;-84
2023/07/12 01:12:15;;;;;;;;;;;23.80;98.60;;;24.23;61.05;98318.69;4987560;28;124131;-84
2023/07/12 01:14:43;;;;;;;;;;;23.90;98.60;;;24.20;60.98;98302.56;4984846;28;121920;-84
2023/07/12 01:17:09;;;;;;;;;;;23.90;98.40;;;24.19;61.03;98291.69;4973391;28;114656;-84
2023/07/12 01:19:37;;;;;;;;;;;23.90;98.30;;;24.20;60.88;98259.41;4988924;28;112661;-85
2023/07/12 01:22:09;;;;;;;;;;;23.90;98.40;;;24.21;61.08;98241.28;4985211;28;124379;-85
2023/07/12 01:24:39;;;;;;;;;;;23.90;98.30;;;24.24;60.99;98232.75;4987930;28;122269;-83
2023/07/12 01:27:31;;;;;;;;;;;23.90;98.30;;;24.21;60.88;98219.50;4989725;28;114663;-82
2023/07/12 01:29:58;;;;;;;;;;;23.90;98.30;;;24.25;60.88;98231.53;4976554;28;113316;-83
2023/07/12 01:32:25;;;;;;;;;;;23.90;98.40;;;24.29;60.84;98241.97;4987935;28;124215;-83
2023/07/12 01:34:55;;;;;;;;;;;23.90;98.40;;;24.29;61.06;98267.38;4987249;28;124030;-82
2023/07/12 01:37:21;;;;;;;;;;;23.90;98.40;;;24.30;61.34;98278.28;4988454;28;114697;-83
2023/07/12 01:39:48;;;;;;;;;;;25.20;99.00;;;24.31;61.00;98273.44;4972374;28;112682;-82
2023/07/12 01:42:14;;;;;;;;;;;23.90;98.50;;;24.33;60.82;98252.03;4986113;28;124305;-83
2023/07/12 01:44:43;;;;;;;;;;;24.00;98.50;;;24.37;60.91;98212.47;4984611;28;124102;-85
2023/07/12 01:47:10;;;;;;;;;;;24.00;98.60;;;24.40;61.01;98166.47;4985501;28;114716;-82
2023/07/12 01:49:36;;;;;;;;;;;24.00;98.50;;;24.45;61.18;98129.31;4986104;28;114945;-82
2023/07/12 01:52:02;;;;;;;;;;;24.00;98.50;;;24.46;61.17;98116.78;4987096;28;123581;-82
2023/07/12 01:54:32;;;;;;;;;;;24.00;98.80;;;24.44;61.11;98120.03;4973703;28;122929;-83
2023/07/12 01:56:58;;;;;;;;;;;24.10;98.80;;;24.40;61.05;98130.53;4989534;28;113475;-83
2023/07/12 01:59:24;;;;;;;;;;;24.00;98.50;;;24.36;61.07;98129.78;4987440;28;113723;-82
2023/07/12 02:01:59;;;;;;;;;;;24.00;98.50;;;24.31;61.23;98146.38;4987772;28;124544;-83
2023/07/12 02:04:26;;;;;;;;;;;24.00;98.40;;;24.24;61.25;98145.25;4986579;28;123937;-83
2023/07/12 02:06:54;;;;;;;;;;;23.90;98.40;;;24.19;61.02;98139.25;4987967;28;114363;-84
2023/07/12 02:09:21;;;;;;;;;;;23.90;98.40;;;24.16;60.89;98157.03;4990228;28;113595;-84
2023/07/12 02:11:47;;;;;;;;;;;23.80;98.20;;;24.13;61.04;98164.31;4981964;28;124530;-84
2023/07/12 02:14:13;;;;;;;;;;;23.80;98.20;;;24.12;61.05;98174.00;4982013;28;123863;-84
2023/07/12 02:16:42;;;;;;;;;;;23.80;98.20;;;24.09;61.22;98177.66;4991061;28;113201;-84
2023/07/12 02:19:09;;;;;;;;;;;23.80;98.30;;;24.06;60.92;98178.50;4989987;28;113804;-84
2023/07/12 02:21:35;;;;;;;;;;;23.70;98.20;;;24.04;60.72;98166.81;4975098;28;123318;-83
2023/07/12 02:24:02;;;;;;;;;;;23.70;98.20;;;24.04;60.80;98169.66;4990954;28;123849;-84
2023/07/12 02:26:31;;;;;;;;;;;23.70;98.10;;;24.04;60.90;98169.66;4993100;28;114581;-83
2023/07/12 02:29:00;;;;;;;;;;;23.70;98.20;;;24.08;61.05;98175.28;4993255;28;112797;-83
2023/07/12 02:31:33;;;;;;;;;;;23.70;98.10;;;24.08;61.00;98176.06;4992006;28;123778;-83
2023/07/12 02:34:02;;;;;;;;;;;23.70;98.10;;;24.08;60.67;98176.06;4976618;28;122066;-83
2023/07/12 02:36:31;;;;;;;;;;;23.80;98.20;;;24.07;60.90;98174.44;4991508;28;115164;-83
2023/07/12 02:38:57;;;;;;;;;;;23.70;98.10;;;24.05;60.90;98179.72;4989552;28;114734;-84
2023/07/12 02:41:26;;;;;;;;;;;23.80;98.10;;;24.05;60.89;98178.94;4987672;28;123916;-84
2023/07/12 02:43:58;;;;;;;;;;;23.70;98.10;;;24.05;60.99;98171.25;4983691;28;124042;-84
2023/07/12 02:46:25;;;;;;;;;;;23.70;98.00;;;24.02;60.87;98172.09;4986278;28;115643;-83
2023/07/12 02:48:55;;;;;;;;;;;23.70;98.10;;;23.99;61.05;98165.28;4987324;28;112878;-84
2023/07/12 02:51:21;;;;;;;;;;;23.70;98.10;;;23.97;61.21;98175.38;4993807;28;124165;-84
2023/07/12 02:53:47;;;;;;;;;;;23.70;98.20;;;23.98;61.03;98171.31;4990274;28;123874;-84
2023/07/12 02:56:14;;;;;;;;;;;23.70;98.20;;;23.99;61.01;98168.09;4990961;28;114433;-84
2023/07/12 02:58:42;;;;;;;;;;;23.70;98.10;;;23.98;61.03;98160.03;4988931;28;113725;-84
2023/07/12 03:01:09;;;;;;;;;;;23.70;98.10;;;23.98;61.05;98166.47;4989667;28;124196;-84
2023/07/12 03:03:35;;;;;;;;;;;23.70;98.10;;;23.97;60.81;98158.44;4988556;28;124125;-84
2023/07/12 03:06:06;;;;;;;;;;;23.70;98.00;;;23.95;60.48;98169.34;4989283;28;114351;-84
2023/07/12 03:08:33;;;;;;;;;;;23.70;98.00;;;23.93;61.04;98175.38;4971734;28;112544;-84
2023/07/12 03:11:02;;;;;;;;;;;23.60;98.10;;;23.90;61.11;98181.06;4988047;28;124218;-84
2023/07/12 03:13:29;;;;;;;;;;;23.60;98.20;;;23.86;61.23;98181.13;4979119;28;124017;-84
2023/07/12 03:15:55;;;;;;;;;;;23.60;98.20;;;23.84;61.09;98186.38;4985823;28;114236;-84
2023/07/12 03:18:21;;;;;;;;;;;23.50;98.20;;;23.83;61.19;98195.25;4975338;28;112037;-83
2023/07/12 03:20:48;;;;;;;;;;;23.60;98.20;;;23.78;61.13;98200.13;4990490;28;124151;-84
2023/07/12 03:23:19;;;;;;;;;;;23.50;98.20;;;23.74;61.10;98190.09;4991826;28;124524;-84
2023/07/12 03:25:46;;;;;;;;;;;23.50;98.20;;;23.71;61.43;98194.53;4992635;28;115436;-83
2023/07/12 03:28:12;;;;;;;;;;;23.40;98.30;;;23.68;61.25;98186.88;4974592;28;114141;-84
2023/07/12 03:30:39;;;;;;;;;;;23.40;98.20;;;23.68;61.40;98180.44;4992169;28;124147;-84
2023/07/12 03:33:07;;;;;;;;;;;23.40;98.30;;;23.65;61.37;98193.34;4989280;28;123774;-84
2023/07/12 03:35:34;;;;;;;;;;;23.40;98.30;;;23.65;61.45;98195.38;4992999;28;114038;-84
2023/07/12 03:38:00;;;;;;;;;;;23.40;98.30;;;23.65;61.28;98198.19;4988412;28;113749;-84
2023/07/12 03:40:26;;;;;;;;;;;23.40;98.30;;;23.64;61.23;98197.38;4989110;28;124160;-84
2023/07/12 03:42:53;;;;;;;;;;;23.40;98.30;;;23.63;61.23;98207.06;4986688;28;124561;-84
2023/07/12 03:45:19;;;;;;;;;;;23.30;98.20;;;23.62;61.26;98207.50;4987925;28;114822;-84
2023/07/12 03:47:46;;;;;;;;;;;23.30;98.30;;;23.60;61.57;98213.53;4984714;28;113697;-84
2023/07/12 03:50:12;;;;;;;;;;;23.30;98.40;;;23.58;61.37;98218.78;4953697;28;123264;-83
2023/07/12 03:52:38;;;;;;;;;;;23.30;98.30;;;23.58;61.35;98235.69;4988062;28;124269;-84
2023/07/12 03:55:05;;;;;;;;;;;23.20;98.30;;;23.55;61.32;98245.00;4989469;28;114646;-84
2023/07/12 03:57:31;;;;;;;;;;;23.20;98.40;;;23.52;61.57;98235.34;4992366;28;113589;-84
2023/07/12 03:59:57;;;;;;;;;;;23.20;98.40;;;23.49;61.35;98212.81;4989151;28;124145;-83
2023/07/12 04:02:24;;;;;;;;;;;23.20;98.40;;;23.48;61.62;98203.56;4988353;28;123838;-84
2023/07/12 04:04:50;;;;;;;;;;;23.20;98.50;;;23.47;61.66;98203.97;4988317;28;114499;-83
2023/07/12 04:07:18;;;;;;;;;;;23.10;98.50;;;23.47;61.51;98209.59;4988543;28;113912;-84
2023/07/12 04:09:44;;;;;;;;;;;23.10;98.40;;;23.48;61.38;98211.19;4991121;28;123031;-84
2023/07/12 04:12:13;;;;;;;;;;;23.10;98.40;;;23.48;61.54;98222.47;4981619;28;123896;-84
2023/07/12 04:14:39;;;;;;;;;;;23.10;98.30;;;23.50;61.29;98228.50;4986754;28;115708;-83
2023/07/12 04:17:06;;;;;;;;;;;23.20;98.40;;;23.49;61.23;98241.00;4989765;28;114849;-84
2023/07/12 04:19:32;;;;;;;;;;;23.10;98.40;;;23.47;61.16;98257.53;4991392;28;124676;-84
2023/07/12 04:21:58;;;;;;;;;;;23.10;98.40;;;23.45;61.24;98259.97;4989853;28;123826;-84
2023/07/12 04:24:24;;;;;;;;;;;23.10;98.30;;;23.43;61.24;98265.19;4989021;28;114023;-84
2023/07/12 04:26:51;;;;;;;;;;;23.10;98.40;;;23.42;61.41;98266.44;4968182;28;112658;-85
2023/07/12 04:29:17;;;;;;;;;;;23.00;98.40;;;23.41;61.41;98267.66;4968964;28;124191;-85
2023/07/12 04:31:43;;;;;;;;;;;23.00;98.40;;;23.41;61.35;98259.19;4986743;28;125088;-85
2023/07/12 04:34:09;;;;;;;;;;;23.00;98.40;;;23.42;61.15;98263.59;4977032;28;114207;-85
2023/07/12 04:36:36;;;;;;;;;;;23.00;98.40;;;23.44;61.19;98249.91;4986397;28;113516;-85
2023/07/12 04:39:02;;;;;;;;;;;23.00;98.40;;;23.45;61.12;98252.28;4987648;28;124978;-84
2023/07/12 04:41:28;;;;;;;;;;;23.10;98.40;;;23.49;61.24;98252.28;4987160;28;123927;-85
2023/07/12 04:43:55;;;;;;;;;;;23.00;98.50;;;23.50;61.25;98256.72;4988580;28;114401;-85
2023/07/12 04:46:21;;;;;;;;;;;23.10;98.50;;;23.51;61.18;98250.66;4988430;28;113660;-85
2023/07/12 04:48:48;;;;;;;;;;;23.10;98.50;;;23.54;61.21;98249.03;4987881;28;124133;-85
2023/07/12 04:51:14;;;;;;;;;;;23.10;98.50;;;23.56;60.92;98243.75;4984218;28;124706;-85
2023/07/12 04:53:42;;;;;;;;;;;23.10;98.50;;;23.60;61.30;98241.75;4986443;28;114021;-85
2023/07/12 04:56:08;;;;;;;;;;;23.20;98.50;;;23.61;61.15;98243.34;4983222;28;114498;-85
2023/07/12 04:58:34;;;;;;;;;;;23.20;98.70;;;23.63;60.99;98249.38;4987570;28;124323;-84
2023/07/12 05:01:02;;;;;;;;;;;23.20;98.30;;;23.63;60.98;98248.56;4989235;28;122886;-84
2023/07/12 05:03:28;;;;;;;;;;;23.20;98.30;;;23.63;60.76;98252.19;4986384;28;115601;-86
2023/07/12 05:05:59;;;;;;;;;;;23.20;98.30;;;23.64;60.95;98250.97;4986845;28;114645;-85
2023/07/12 05:08:25;;;;;;;;;;;23.20;98.30;;;23.63;61.06;98252.19;4984061;28;124181;-82
2023/07/12 05:10:59;;;;;;;;;;;23.20;98.30;;;23.63;61.20;98248.56;4985874;28;124334;-85
2023/07/12 05:13:26;;;;;;;;;;;23.20;98.30;;;23.64;61.20;98261.44;4999797;28;116739;-83
2023/07/12 05:15:55;;;;;;;;;;;23.20;98.50;;;23.66;61.20;98264.66;5004830;28;113967;-84
2023/07/12 05:18:21;;;;;;;;;;;23.30;98.50;;;23.67;61.28;98269.91;4973664;28;124251;-83
2023/07/12 05:20:58;;;;;;;;;;;24.00;98.90;;;23.69;61.52;98272.28;4971020;28;123821;-82
2023/07/12 05:24:02;;;;;;;;;;;23.30;98.70;;;23.70;61.42;98274.72;4973457;28;113844;-82
2023/07/12 05:27:03;;;;;;;;;;;23.30;98.70;;;23.72;61.35;98277.97;4959877;28;112842;-83
2023/07/12 05:29:41;;;;;;;;;;;23.30;98.70;;;23.75;61.38;98282.78;4974742;28;124425;-84
2023/07/12 05:32:28;;;;;;;;;;;23.40;98.80;;;23.79;61.75;98280.72;4975361;28;124241;-85
2023/07/12 05:35:34;;;;;;;;;;;23.40;98.90;;;23.81;61.56;98285.94;4981973;28;113920;-84
2023/07/12 05:38:12;;;;;;;;;;;23.40;99.00;;;23.83;61.83;98288.34;4984533;28;113905;-84
2023/07/12 05:41:07;;;;;;;;;;;23.40;98.90;;;23.81;61.99;98295.22;4971057;28;123626;-84
2023/07/12 05:43:46;;;;;;;;;;;23.50;99.00;;;23.84;61.85;98278.69;4993287;28;123830;-83
2023/07/12 05:46:30;;;;;;;;;;;23.50;99.10;;;23.87;61.73;98287.09;5004791;28;114341;-84
2023/07/12 05:55:55;;;;;;;;;;;23.50;99.10;;;24.00;61.77;98281.78;4866762;28;124884;-82
2023/07/12 05:58:41;;;;;;;;;;;23.60;99.20;;;24.04;61.81;98279.72;4864471;28;115051;-85
2023/07/12 06:01:13;;;;;;;;;;;23.60;99.10;;;24.08;61.53;98259.94;4874276;28;113597;-84
2023/07/12 06:03:54;;;;;;;;;;;23.60;99.00;;;24.14;61.49;98269.56;4867432;28;124624;-84
2023/07/12 06:06:52;;;;;;;;;;;23.70;99.40;;;24.18;61.68;98271.13;4886330;28;124672;-84
2023/07/12 06:09:43;;;;;;;;;;;23.70;99.10;;;24.19;61.62;98264.25;4892481;28;113970;-84
2023/07/12 06:12:25;;;;;;;;;;;23.70;99.00;;;24.25;61.67;98271.06;4876369;28;113948;-84
2023/07/12 06:15:29;;;;;;;;;;;23.80;99.10;;;24.30;61.87;98277.50;4876770;28;124839;-84
2023/07/12 06:18:06;;;;;;;;;;;23.90;99.10;;;24.31;61.60;98273.44;4889887;28;123926;-85
2023/07/12 06:20:33;;;;;;;;;;;23.90;99.10;;;24.36;61.42;98279.44;4862133;28;114940;-84
2023/07/12 06:23:14;;;;;;;;;;;23.90;99.10;;;24.38;61.33;98287.50;4858451;28;113865;-84
2023/07/12 06:25:40;;;;;;;;;;;23.90;99.10;;;24.41;61.24;98289.47;4863877;28;124426;-84
2023/07/12 06:28:12;;;;;;;;;;;24.00;99.00;;;24.44;61.03;98289.47;4861389;28;123809;-84
2023/07/12 06:30:44;;;;;;;;;;;24.00;99.10;;;24.47;61.19;98290.66;4861544;28;114237;-83
2023/07/12 06:33:17;;;;;;;;;;;24.00;99.00;;;24.53;61.06;98286.16;4948667;28;113904;-82
2023/07/12 06:39:09;;;;;;;;;;;24.10;98.70;;;24.62;60.32;98294.16;4950161;28;125692;-83
2023/07/12 06:41:35;;;;;;;;;;;24.20;98.60;;;24.74;60.23;98289.97;4940294;28;114017;-83
2023/07/12 06:44:02;;;;;;;;;;;24.20;98.60;;;24.83;60.22;98285.44;4951506;28;114072;-83
2023/07/12 06:46:28;;;;;;;;;;;24.30;98.50;;;24.95;59.36;98295.38;4932679;28;124190;-83
2023/07/12 06:48:57;;;;;;;;;;;24.40;98.20;;;25.04;58.48;98306.19;4950498;28;124454;-88
2023/07/12 06:51:24;;;;;;;;;;;24.50;97.90;;;25.09;58.29;98300.88;4947662;28;115715;-83
2023/07/12 06:53:50;;;;;;;;;;;24.60;97.60;;;25.16;58.00;98307.69;4949397;28;118236;-84
2023/07/12 06:56:16;;;;;;;;;;;24.60;97.40;;;25.24;57.63;98307.19;4935392;28;122543;-84
2023/07/12 06:58:48;;;;;;;;;;;24.70;97.20;;;25.33;57.45;98310.31;4943765;28;122780;-83
2023/07/12 07:01:14;;;;;;;;;;;24.80;97.10;;;25.46;57.62;98307.69;4950049;28;114649;-83
2023/07/12 07:03:41;;;;;;;;;;;24.90;97.10;;;25.61;57.01;98311.13;4945696;28;112797;-85
2023/07/12 07:06:12;;;;;;;;;;;25.00;96.80;;;25.69;56.75;98314.69;4949708;28;124217;-82
2023/07/12 07:08:38;;;;;;;;;;;25.10;96.50;;;25.75;56.16;98316.59;4943286;28;123900;-84
2023/07/12 07:11:05;;;;;;;;;;;25.20;96.10;;;25.80;55.48;98318.16;4963171;28;114748;-83
2023/07/12 07:13:38;;;;;;;;;;;27.10;96.40;;;25.84;54.96;98330.22;4954548;28;113657;-84
2023/07/12 07:16:05;;;;;;;;;;;25.30;95.50;;;25.86;55.19;98330.59;4940712;28;124420;-84
2023/07/12 07:18:34;;;;;;;;;;;25.40;95.20;;;25.91;54.79;98332.16;4981065;28;124098;-85
2023/07/12 07:21:01;;;;;;;;;;;25.40;95.00;;;25.97;54.73;98330.44;4990597;28;113820;-85
2023/07/12 07:23:27;;;;;;;;;;;25.40;94.90;;;26.04;54.06;98323.88;4987850;28;114217;-85
2023/07/12 07:25:53;;;;;;;;;;;25.50;94.80;;;26.11;54.15;98346.41;4989549;28;124294;-84
2023/07/12 07:28:23;;;;;;;;;;;25.60;94.60;;;26.16;53.66;98320.44;4978630;28;124499;-84
2023/07/12 07:31:00;;;;;;;;;;;25.60;94.30;;;26.23;52.76;98332.47;4988188;28;114277;-84
2023/07/12 07:33:27;;;;;;;;;;;25.70;93.90;;;26.30;52.74;98334.34;4976340;28;112789;-84
2023/07/12 07:36:00;;;;;;;;;;;25.80;93.80;;;26.36;51.96;98340.38;4988582;28;124075;-85
2023/07/12 07:38:28;;;;;;;;;;;25.80;93.50;;;26.37;51.16;98328.59;4965034;28;123293;-84
2023/07/12 07:40:58;;;;;;;;;;;25.80;92.80;;;26.41;51.15;98342.69;4987262;28;116027;-84
2023/07/12 07:43:24;;;;;;;;;;;25.90;92.70;;;26.44;51.01;98339.00;4988090;28;115027;-84
2023/07/12 07:45:51;;;;;;;;;;;25.90;92.50;;;26.52;50.60;98359.53;4965606;28;123417;-85
2023/07/12 07:48:27;;;;;;;;;;;26.00;92.40;;;26.55;50.12;98353.81;4961152;28;124321;-84
2023/07/12 07:50:53;;;;;;;;;;;26.00;92.00;;;26.61;49.94;98345.63;4993006;28;113714;-84
2023/07/12 07:53:22;;;;;;;;;;;26.10;91.70;;;26.69;49.58;98351.97;4978825;28;113220;-85
2023/07/12 07:55:49;;;;;;;;;;;26.20;91.70;;;26.78;49.60;98358.66;4988904;28;123421;-84
2023/07/12 07:58:16;;;;;;;;;;;26.30;91.50;;;26.86;49.42;98351.63;4963607;28;124139;-85
2023/07/12 08:00:42;;;;;;;;;;;26.30;91.50;;;26.93;49.24;98353.53;4969281;28;113360;-83
2023/07/12 08:03:11;;;;;;;;;;;26.40;91.40;;;27.00;47.92;98355.41;4989255;28;113462;-85
2023/07/12 08:05:41;;;;;;;;;;;26.40;90.50;;;27.03;48.17;98354.56;4983401;28;125065;-85
2023/07/12 08:08:10;;;;;;;;;;;26.50;90.40;;;27.06;48.13;98359.38;4989700;28;123976;-84
2023/07/12 08:10:41;;;;;;;;;;;26.50;90.30;;;27.11;47.80;98350.38;4992286;28;114095;-83
2023/07/12 08:13:12;;;;;;;;;;;26.50;90.20;;;27.17;48.34;98360.00;4971608;28;112559;-81
2023/07/12 08:15:43;;;;;;;;;;;26.60;90.30;;;27.22;47.64;98350.97;4982572;28;124404;-83
2023/07/12 08:18:11;;;;;;;;;;;26.70;90.20;;;27.26;48.06;98362.25;4974676;28;123622;-81
2023/07/12 08:20:38;;;;;;;;;;;26.70;90.10;;;27.26;47.82;98368.72;4982231;28;114632;-84
2023/07/12 08:23:04;;;;;;;;;;;26.70;90.10;;;27.27;47.02;98380.84;4989166;28;114105;-85
2023/07/12 08:25:34;;;;;;;;;;;26.70;89.00;;;27.26;46.79;98367.91;4988130;28;124914;-82
2023/07/12 08:28:01;;;;;;;;;;;26.80;88.80;;;27.28;46.77;98366.25;4972538;28;121947;-84
2023/07/12 08:30:27;;;;;;;;;;;26.80;88.70;;;27.33;47.03;98378.34;4991381;28;115289;-82
2023/07/12 08:32:53;;;;;;;;;;;26.80;88.40;;;27.35;46.19;98371.00;4964222;28;113864;-82
2023/07/12 08:35:22;;;;;;;;;;;26.90;87.80;;;27.37;46.33;98374.16;4977954;28;125225;-84
2023/07/12 08:37:48;;;;;;;;;;;26.90;87.90;;;27.42;47.00;98372.88;4967806;28;124253;-85
2023/07/12 08:40:23;;;;;;;;;;;26.90;88.40;;;27.44;46.96;98367.56;4985814;28;114545;-85
2023/07/12 08:42:50;;;;;;;;;;;27.00;88.60;;;27.49;47.23;98375.56;4986954;28;113326;-85
2023/07/12 08:45:35;;;;;;;;;;;27.00;88.40;;;27.56;46.32;98386.75;4985256;28;125234;-84
2023/07/12 08:48:12;;;;;;;;;;;27.00;87.50;;;27.60;45.78;98375.34;4978521;28;124126;-84
2023/07/12 08:50:45;;;;;;;;;;;27.10;86.80;;;27.66;45.74;98384.94;4981110;28;114018;-84
2023/07/12 08:53:16;;;;;;;;;;;27.10;86.80;;;27.72;45.05;98381.13;4978166;28;113644;-86
2023/07/12 08:55:49;;;;;;;;;;;27.20;85.60;;;27.72;44.38;98369.78;4965980;28;123473;-84
2023/07/12 08:58:50;;;;;;;;;;;27.20;84.40;;;27.70;44.63;98369.44;4967394;28;122906;-84
2023/07/12 09:01:34;;;;;;;;;;;27.30;84.50;;;27.76;44.87;98379.03;4988156;28;113923;-86
2023/07/12 09:04:01;;;;;;;;;;;27.30;84.60;;;27.83;45.08;98366.72;4983371;28;113903;-86
2023/07/12 09:06:27;;;;;;;;;;;27.40;84.60;;;27.91;44.73;98373.84;4983511;28;124877;-86
2023/07/12 09:09:03;;;;;;;;;;;27.40;84.40;;;28.01;44.66;98377.69;4985490;28;124591;-86
2023/07/12 09:11:36;;;;;;;;;;;27.50;84.60;;;28.10;44.56;98382.75;4984630;28;115549;-86
2023/07/12 09:14:02;;;;;;;;;;;27.60;84.20;;;28.13;43.64;98376.19;4981748;28;113736;-89
2023/07/12 09:16:28;;;;;;;;;;;27.60;82.70;;;28.16;43.36;98381.81;4982876;28;123939;-87
2023/07/12 09:19:00;;;;;;;;;;;27.70;82.00;;;28.23;43.49;98382.88;4988026;28;124568;-88
2023/07/12 09:21:36;;;;;;;;;;;27.70;82.10;;;28.29;42.89;98376.25;4985762;28;115561;-89
2023/07/12 09:24:10;;;;;;;;;;;27.80;81.10;;;28.35;42.75;98367.97;4988081;28;114760;-91
2023/07/12 09:26:38;;;;;;;;;;;27.80;80.40;;;28.40;42.46;98361.75;4974319;28;124067;-88
2023/07/12 09:29:24;;;;;;;;;;;27.90;80.20;;;28.45;42.54;98366.13;4991502;28;122864;-88
2023/07/12 09:31:59;;;;;;;;;;;27.90;80.10;;;28.51;42.13;98365.16;4984248;28;114846;-88
2023/07/12 09:34:49;;;;;;;;;;;28.00;79.80;;;28.54;41.92;98358.59;4977624;28;113768;-88
2023/07/12 09:37:24;;;;;;;;;;;28.00;79.40;;;28.60;42.22;98359.63;4984315;28;124587;-88
2023/07/12 09:39:59;;;;;;;;;;;28.10;79.50;;;28.62;41.60;98362.06;4986756;28;123773;-89
2023/07/12 09:42:27;;;;;;;;;;;28.10;78.40;;;28.62;41.63;98364.88;4982114;28;114613;-90
2023/07/12 09:45:04;;;;;;;;;;;28.10;78.10;;;28.63;41.35;98349.41;4986262;28;113942;-91
2023/07/12 09:47:44;;;;;;;;;;;28.10;77.30;;;28.61;41.50;98347.03;4985725;28;124356;-88
2023/07/12 09:50:14;;;;;;;;;;;28.20;77.50;;;28.65;41.62;98349.00;4986813;28;124228;-89
2023/07/12 09:52:58;;;;;;;;;;;28.20;77.60;;;28.69;41.38;98335.47;4988507;28;114605;-88
2023/07/12 09:55:51;;;;;;;;;;;28.20;77.30;;;28.73;41.04;98342.66;4986101;28;114948;-91
2023/07/12 09:59:13;;;;;;;;;;;28.30;76.80;;;28.75;40.82;98339.38;4978030;28;124551;-92
2023/07/12 10:01:54;;;;;;;;;;;28.30;76.20;;;28.77;40.65;98342.56;4977187;28;124272;-87
2023/07/12 10:04:33;;;;;;;;;;;28.30;76.10;;;28.84;40.68;98336.69;4984912;28;114366;-91
2023/07/12 10:07:09;;;;;;;;;;;28.40;76.00;;;28.95;40.63;98340.03;4965135;28;112832;-92
2023/07/12 10:09:36;;;;;;;;;;;28.40;75.40;;;29.00;40.24;98333.00;4986228;28;123373;-91
2023/07/12 10:12:26;;;;;;;;;;;28.50;75.40;;;28.99;39.98;98337.91;4985384;28;123412;-92
2023/07/12 10:14:55;;;;;;;;;;;28.60;74.90;;;29.03;40.01;98343.47;4985485;28;115385;-92
2023/07/12 10:17:31;;;;;;;;;;;28.60;74.80;;;29.05;40.11;98335.34;4984276;28;114599;-93
2023/07/12 10:19:58;;;;;;;;;;;28.60;74.30;;;29.11;39.79;98335.59;4987105;28;124058;-91
2023/07/12 10:22:38;;;;;;;;;;;28.70;74.10;;;29.11;40.09;98327.84;4982439;28;123301;-91
2023/07/12 10:25:20;;;;;;;;;;;28.60;73.80;;;29.08;39.01;98334.44;4973904;28;114863;-83
2023/07/12 10:28:03;;;;;;;;;;;28.60;72.30;;;29.08;38.71;98319.41;4982742;28;114354;-86
2023/07/12 10:30:31;;;;;;;;;;;28.70;72.30;;;29.11;39.31;98321.34;4982084;28;124347;-91
2023/07/12 10:33:09;;;;;;;;;;;28.70;72.50;;;29.16;39.42;98315.13;4991128;28;123867;-86
2023/07/12 10:35:41;;;;;;;;;;;28.70;72.50;;;29.20;39.19;98318.66;4987684;28;114015;-87
2023/07/12 10:38:17;;;;;;;;;;;28.80;72.30;;;29.24;39.15;98325.03;4985085;28;114265;-81
2023/07/12 10:40:52;;;;;;;;;;;28.80;72.50;;;29.27;39.48;98329.84;4987485;28;125606;-87
2023/07/12 10:43:29;;;;;;;;;;;28.80;72.40;;;29.29;39.64;98330.19;4988086;28;124440;-88
2023/07/12 10:46:05;;;;;;;;;;;28.80;72.70;;;29.34;39.11;98326.78;4989649;28;113652;-88
2023/07/12 10:48:34;;;;;;;;;;;28.90;72.00;;;29.33;38.86;98328.03;4988156;28;113335;-88
2023/07/12 10:51:26;;;;;;;;;;;28.90;71.60;;;29.35;38.84;98331.22;4990841;28;123866;-88
2023/07/12 10:53:54;;;;;;;;;;;29.00;71.40;;;29.39;38.22;98329.09;4978154;28;124265;-87
2023/07/12 10:56:32;;;;;;;;;;;29.00;70.30;;;29.37;38.36;98331.56;4974069;28;113432;-88
2023/07/12 10:59:33;;;;;;;;;;;29.00;70.40;;;29.35;38.32;98317.00;4987863;28;113822;-88
2023/07/12 11:02:05;;;;;;;;;;;29.00;70.00;;;29.39;38.63;98314.03;4990286;28;124629;-88
2023/07/12 11:04:34;;;;;;;;;;;29.00;70.20;;;29.42;37.95;98316.78;4986800;28;123932;-87
2023/07/12 11:07:12;;;;;;;;;;;29.00;69.80;;;29.46;38.08;98317.47;4988524;28;114868;-87
2023/07/12 11:12:13;;;;;;;;;;;29.00;69.80;;;29.48;38.01;98305.63;4989164;28;124138;-83
2023/07/12 11:14:39;;;;;;;;;;;29.00;68.80;;;29.50;37.61;98308.84;4987476;28;124826;-86
2023/07/12 11:17:11;;;;;;;;;;;29.10;68.60;;;29.56;37.88;98306.22;4989558;28;115248;-87
2023/07/12 11:19:42;;;;;;;;;;;29.20;68.90;;;29.59;37.71;98288.22;4990846;28;113725;-82
2023/07/12 11:22:24;;;;;;;;;;;29.20;68.20;;;29.59;37.67;98303.25;4990541;28;123862;-85
2023/07/12 11:25:01;;;;;;;;;;;29.20;68.00;;;29.66;37.24;98293.72;4963901;28;122604;-82
2023/07/12 11:27:32;;;;;;;;;;;29.20;67.40;;;29.70;37.12;98294.41;4983904;28;114522;-82
2023/07/12 11:30:14;;;;;;;;;;;29.30;67.50;;;29.73;36.30;98294.28;4988491;28;114074;-83
2023/07/12 11:32:41;;;;;;;;;;;29.30;66.80;;;29.79;36.89;98288.03;4987444;28;124303;-83
2023/07/12 11:35:47;;;;;;;;;;;29.30;66.50;;;29.83;36.16;98286.69;4973740;28;123356;-83
2023/07/12 11:38:18;;;;;;;;;;;29.40;66.10;;;29.90;36.18;98308.44;4983538;28;113563;-83
2023/07/12 11:40:47;;;;;;;;;;;29.50;66.10;;;29.97;36.06;98307.41;4990796;28;112905;-82
2023/07/12 11:43:22;;;;;;;;;;;29.50;65.10;;;30.02;35.83;98295.44;4972388;28;123402;-82